Time;durP1;ratioP1;P1;durP2;ratioP2;P2;SDS_P1;SDS_P2;PMS_P1;PMS_P2;Temp;Humidity;BMP_temperature;BMP_pressure;BME280_temperature;BME280_humidity;BME280_pressure;Samples;Min_cycle;Max_cycle;Signal;HPM_P1;HPM_P2
2023/08/06 00:01:11;;;;;;;;;;;16.00;99.90;;;;;;5113431;28;20268;-69
2023/08/06 00:03:37;;;;;;;;;;;16.10;99.90;;;;;;5113171;28;19911;-67
2023/08/06 00:06:07;;;;;;;;;;;16.00;99.90;;;;;;5107597;28;19919;-69
2023/08/06 00:08:33;;;;;;;;;;;16.10;99.90;;;;;;5093001;28;20284;-65
2023/08/06 00:11:00;;;;;;;;;;;16.20;99.90;;;;;;5093272;28;19915;-70
2023/08/06 00:13:27;;;;;;;;;;;16.20;99.90;;;;;;5093117;28;19916;-70
2023/08/06 00:15:53;;;;;;;;;;;16.20;99.90;;;;;;5093234;28;19950;-69
2023/08/06 00:18:20;;;;;;;;;;;16.20;99.90;;;;;;5093156;28;20411;-71
2023/08/06 00:20:47;;;;;;;;;;;16.20;99.90;;;;;;5093113;28;19943;-70
2023/08/06 00:23:13;;;;;;;;;;;16.30;99.90;;;;;;5093041;28;20393;-70
2023/08/06 00:25:40;;;;;;;;;;;16.40;99.90;;;;;;5092604;28;20296;-70
2023/08/06 00:28:07;;;;;;;;;;;16.40;99.90;;;;;;5092860;28;20000;-68
2023/08/06 00:30:33;;;;;;;;;;;16.50;99.90;;;;;;5092820;28;19908;-68
2023/08/06 00:33:00;;;;;;;;;;;16.60;99.90;;;;;;5101546;28;20287;-69
2023/08/06 00:35:26;;;;;;;;;;;16.70;99.90;;;;;;5112829;28;19919;-70
2023/08/06 00:37:53;;;;;;;;;;;16.70;99.90;;;;;;5112997;28;19908;-70
2023/08/06 00:40:23;;;;;;;;;;;16.70;99.90;;;;;;5112933;28;19908;-68
2023/08/06 00:42:49;;;;;;;;;;;16.70;99.90;;;;;;5112689;28;19916;-70
2023/08/06 00:45:16;;;;;;;;;;;16.70;99.90;;;;;;5113137;28;19924;-70
2023/08/06 00:47:43;;;;;;;;;;;16.80;99.90;;;;;;5112885;28;19919;-68
2023/08/06 00:50:12;;;;;;;;;;;16.90;99.90;;;;;;5113400;28;19912;-69
2023/08/06 00:52:39;;;;;;;;;;;16.90;99.90;;;;;;5112696;28;19912;-71
2023/08/06 00:55:06;;;;;;;;;;;16.90;99.90;;;;;;5112896;28;19908;-71
2023/08/06 00:57:33;;;;;;;;;;;17.00;99.90;;;;;;5112703;28;19908;-71
2023/08/06 00:59:59;;;;;;;;;;;17.10;99.90;;;;;;5112555;28;20369;-70
2023/08/06 01:02:26;;;;;;;;;;;17.10;99.90;;;;;;5112108;28;19919;-71
2023/08/06 01:04:53;;;;;;;;;;;17.20;99.90;;;;;;5101055;28;19927;-70
2023/08/06 01:07:31;;;;;;;;;;;17.10;99.90;;;;;;5092845;28;20434;-70
2023/08/06 01:10:10;;;;;;;;;;;17.10;99.90;;;;;;5092528;28;19908;-70
2023/08/06 01:12:46;;;;;;;;;;;17.20;99.90;;;;;;5093132;28;20361;-69
2023/08/06 01:15:19;;;;;;;;;;;17.30;99.90;;;;;;5092139;28;20007;-71
2023/08/06 01:17:46;;;;;;;;;;;17.30;99.90;;;;;;5091828;28;19931;-66
2023/08/06 01:20:13;;;;;;;;;;;17.20;99.90;;;;;;5098649;28;20014;-71
2023/08/06 01:22:40;;;;;;;;;;;17.20;99.90;;;;;;5112548;28;20408;-70
2023/08/06 01:25:07;;;;;;;;;;;17.30;99.90;;;;;;5112336;28;19998;-71
2023/08/06 01:27:50;;;;;;;;;;;17.20;99.90;;;;;;5112698;28;19912;-70
2023/08/06 01:30:16;;;;;;;;;;;17.20;99.90;;;;;;5112175;28;19908;-73
2023/08/06 01:32:45;;;;;;;;;;;17.30;99.90;;;;;;5112250;28;19907;-72
2023/08/06 01:35:12;;;;;;;;;;;17.30;99.90;;;;;;5112410;28;20003;-72
2023/08/06 01:37:39;;;;;;;;;;;17.40;99.90;;;;;;5112716;28;19916;-68
2023/08/06 01:40:07;;;;;;;;;;;17.30;99.90;;;;;;5112581;28;19915;-70
2023/08/06 01:42:34;;;;;;;;;;;17.40;99.90;;;;;;5104748;28;20337;-71
2023/08/06 01:45:00;;;;;;;;;;;17.30;99.90;;;;;;5091691;28;20007;-67
2023/08/06 01:47:27;;;;;;;;;;;17.40;99.90;;;;;;5091864;28;19908;-73
2023/08/06 01:49:54;;;;;;;;;;;17.50;99.90;;;;;;5112679;28;19908;-72
2023/08/06 01:52:20;;;;;;;;;;;17.50;99.90;;;;;;5112175;28;19912;-71
2023/08/06 01:54:47;;;;;;;;;;;17.70;99.90;;;;;;5112632;28;19914;-71
2023/08/06 01:57:14;;;;;;;;;;;17.70;99.90;;;;;;5112143;28;20364;-71
2023/08/06 01:59:40;;;;;;;;;;;17.60;99.90;;;;;;5111662;28;19908;-70
2023/08/06 02:02:07;;;;;;;;;;;17.70;99.90;;;;;;5108003;28;19912;-68
2023/08/06 02:04:33;;;;;;;;;;;17.70;99.90;;;;;;5111330;28;20416;-72
2023/08/06 02:07:00;;;;;;;;;;;17.90;99.90;;;;;;5111485;28;19908;-74
2023/08/06 02:09:27;;;;;;;;;;;18.00;99.90;;;;;;5112993;28;19919;-70
2023/08/06 02:11:53;;;;;;;;;;;18.10;99.90;;;;;;5113867;28;19915;-66
2023/08/06 02:14:20;;;;;;;;;;;18.20;99.90;;;;;;5095508;28;19959;-72
2023/08/06 02:16:47;;;;;;;;;;;18.40;99.90;;;;;;5114341;28;19923;-72
2023/08/06 02:19:13;;;;;;;;;;;18.50;99.90;;;;;;5115059;28;20376;-72
2023/08/06 02:21:40;;;;;;;;;;;18.70;99.90;;;;;;5114581;28;19919;-72
2023/08/06 02:24:06;;;;;;;;;;;18.80;99.90;;;;;;5096605;28;20326;-70
2023/08/06 02:26:33;;;;;;;;;;;18.90;99.90;;;;;;5114754;28;19917;-72
2023/08/06 02:29:00;;;;;;;;;;;19.00;99.90;;;;;;5114346;28;20015;-72
2023/08/06 02:31:26;;;;;;;;;;;19.10;99.90;;;;;;5114709;28;20004;-72
2023/08/06 02:33:53;;;;;;;;;;;19.20;99.90;;;;;;5115089;28;20018;-71
2023/08/06 02:36:20;;;;;;;;;;;19.50;99.90;;;;;;5114602;28;20364;-71
2023/08/06 02:38:47;;;;;;;;;;;19.60;99.90;;;;;;5114649;28;19912;-64
2023/08/06 02:41:13;;;;;;;;;;;19.70;99.90;;;;;;5114771;28;19907;-69
2023/08/06 02:43:40;;;;;;;;;;;19.80;99.90;;;;;;5113362;28;19945;-67
2023/08/06 02:46:07;;;;;;;;;;;19.90;99.90;;;;;;5114865;28;19922;-72
2023/08/06 02:48:33;;;;;;;;;;;19.80;99.90;;;;;;5114802;28;19914;-65
2023/08/06 02:51:00;;;;;;;;;;;19.80;99.90;;;;;;5114429;28;19912;-72
2023/08/06 02:53:27;;;;;;;;;;;19.90;99.90;;;;;;5114468;28;19908;-68
2023/08/06 02:55:54;;;;;;;;;;;19.60;99.90;;;;;;5114502;28;19908;-67
2023/08/06 02:58:24;;;;;;;;;;;19.60;99.90;;;;;;5111897;28;19908;-65
2023/08/06 03:01:06;;;;;;;;;;;19.40;99.90;;;;;;5114291;28;19908;-67
2023/08/06 03:03:33;;;;;;;;;;;19.10;99.90;;;;;;5110901;28;19945;-67
2023/08/06 03:06:00;;;;;;;;;;;18.90;99.90;;;;;;5114485;28;19968;-67
2023/08/06 03:08:27;;;;;;;;;;;18.80;99.90;;;;;;5115097;28;19946;-68
2023/08/06 03:10:54;;;;;;;;;;;18.80;99.90;;;;;;5095139;28;20052;-67
2023/08/06 03:13:20;;;;;;;;;;;18.80;99.90;;;;;;5114257;28;20006;-70
2023/08/06 03:15:54;;;;;;;;;;;18.70;99.90;;;;;;5114583;28;20010;-71
2023/08/06 03:18:21;;;;;;;;;;;18.60;99.90;;;;;;5114416;28;19908;-69
2023/08/06 03:20:48;;;;;;;;;;;18.70;99.90;;;;;;5113483;28;19999;-66
2023/08/06 03:23:14;;;;;;;;;;;19.00;99.90;;;;;;5094959;28;20383;-68
2023/08/06 03:25:41;;;;;;;;;;;19.10;99.90;;;;;;5094212;28;19916;-66
2023/08/06 03:28:08;;;;;;;;;;;19.20;99.90;;;;;;5094047;28;20345;-66
2023/08/06 03:30:34;;;;;;;;;;;19.30;99.90;;;;;;5094231;28;19909;-70
2023/08/06 03:33:01;;;;;;;;;;;19.30;99.90;;;;;;5107994;28;19934;-67
2023/08/06 03:35:27;;;;;;;;;;;19.20;99.90;;;;;;5114484;28;19912;-65
2023/08/06 03:37:54;;;;;;;;;;;19.10;99.90;;;;;;5113550;28;19912;-68
2023/08/06 03:40:21;;;;;;;;;;;19.10;99.90;;;;;;5113692;28;19915;-67
2023/08/06 03:42:47;;;;;;;;;;;19.00;99.90;;;;;;5099591;28;19912;-68
2023/08/06 03:45:14;;;;;;;;;;;18.90;99.90;;;;;;5089931;28;19919;-66
2023/08/06 03:47:41;;;;;;;;;;;18.90;99.90;;;;;;5112896;28;20349;-67
2023/08/06 03:50:08;;;;;;;;;;;18.90;99.90;;;;;;5112353;28;19908;-67
2023/08/06 03:52:34;;;;;;;;;;;18.80;99.90;;;;;;5089377;28;19996;-65
2023/08/06 03:55:01;;;;;;;;;;;18.70;99.90;;;;;;5112270;28;19958;-66
2023/08/06 03:57:28;;;;;;;;;;;18.70;99.90;;;;;;5111393;28;20341;-67
2023/08/06 03:59:54;;;;;;;;;;;18.70;99.90;;;;;;5109919;28;20002;-67
2023/08/06 04:02:21;;;;;;;;;;;18.80;99.90;;;;;;5097287;28;19993;-67
2023/08/06 04:04:48;;;;;;;;;;;18.70;99.90;;;;;;5092321;28;19912;-65
2023/08/06 04:07:14;;;;;;;;;;;18.80;99.90;;;;;;5108872;28;19915;-65
2023/08/06 04:09:59;;;;;;;;;;;18.70;99.90;;;;;;5112639;28;19908;-66
2023/08/06 04:12:26;;;;;;;;;;;18.70;99.90;;;;;;5105780;28;19916;-66
2023/08/06 04:14:53;;;;;;;;;;;18.50;99.90;;;;;;5111754;28;19930;-66
2023/08/06 04:17:20;;;;;;;;;;;18.50;99.90;;;;;;5111218;28;19943;-67
2023/08/06 04:19:48;;;;;;;;;;;18.60;99.90;;;;;;5112557;28;19911;-68
2023/08/06 04:22:14;;;;;;;;;;;18.50;99.90;;;;;;5101785;28;19912;-69
2023/08/06 04:24:41;;;;;;;;;;;18.40;99.90;;;;;;5092114;28;19912;-68
2023/08/06 04:27:08;;;;;;;;;;;18.40;99.90;;;;;;5091975;28;20275;-67
2023/08/06 04:29:35;;;;;;;;;;;18.40;99.90;;;;;;5112439;28;19915;-67
2023/08/06 04:32:01;;;;;;;;;;;18.40;99.90;;;;;;5107286;28;19935;-69
2023/08/06 04:34:28;;;;;;;;;;;18.60;99.90;;;;;;5110549;28;19911;-68
2023/08/06 04:36:54;;;;;;;;;;;18.80;99.90;;;;;;5100688;28;19912;-65
2023/08/06 04:39:21;;;;;;;;;;;19.00;99.90;;;;;;5092890;28;19918;-65
2023/08/06 04:41:48;;;;;;;;;;;19.30;99.90;;;;;;5108593;28;20372;-67
2023/08/06 04:44:14;;;;;;;;;;;19.30;99.90;;;;;;5109605;28;19920;-68
2023/08/06 04:46:41;;;;;;;;;;;19.50;99.90;;;;;;5111590;28;19949;-65
2023/08/06 04:49:08;;;;;;;;;;;19.50;99.90;;;;;;5111963;28;20276;-67
2023/08/06 04:51:34;;;;;;;;;;;19.70;99.90;;;;;;5111622;28;20271;-68
2023/08/06 04:54:01;;;;;;;;;;;19.70;99.90;;;;;;5111721;28;19908;-67
2023/08/06 04:56:28;;;;;;;;;;;19.70;99.90;;;;;;5111132;28;20010;-66
2023/08/06 04:58:54;;;;;;;;;;;19.70;99.90;;;;;;5111346;28;20333;-68
2023/08/06 05:01:21;;;;;;;;;;;19.70;99.90;;;;;;5110165;28;19912;-68
2023/08/06 05:03:48;;;;;;;;;;;19.60;99.90;;;;;;5111757;28;19922;-68
2023/08/06 05:06:14;;;;;;;;;;;19.50;99.90;;;;;;5107552;28;19970;-70
2023/08/06 05:08:41;;;;;;;;;;;19.50;99.90;;;;;;5107205;28;20288;-68
2023/08/06 05:11:07;;;;;;;;;;;19.40;99.70;;;;;;5111534;28;19958;-69
2023/08/06 05:13:34;;;;;;;;;;;19.20;99.90;;;;;;5103223;28;19908;-67
2023/08/06 05:16:01;;;;;;;;;;;18.90;99.90;;;;;;5111697;28;19907;-69
2023/08/06 05:18:28;;;;;;;;;;;18.80;99.90;;;;;;5111369;28;19953;-67
2023/08/06 05:20:54;;;;;;;;;;;18.70;99.90;;;;;;5111620;28;19912;-68
2023/08/06 05:23:21;;;;;;;;;;;18.60;99.90;;;;;;5104875;28;19908;-69
2023/08/06 05:25:48;;;;;;;;;;;18.40;99.90;;;;;;5103460;28;19924;-64
2023/08/06 05:28:14;;;;;;;;;;;18.20;99.90;;;;;;5088550;28;20280;-68
2023/08/06 05:30:41;;;;;;;;;;;18.10;99.90;;;;;;5091130;28;20133;-67
2023/08/06 05:33:08;;;;;;;;;;;18.00;99.90;;;;;;5104011;28;19930;-69
2023/08/06 05:35:35;;;;;;;;;;;17.90;99.90;;;;;;5093447;28;20273;-67
2023/08/06 05:38:01;;;;;;;;;;;17.90;99.90;;;;;;5106466;28;20356;-68
2023/08/06 05:40:28;;;;;;;;;;;17.80;99.90;;;;;;5110457;28;20128;-69
2023/08/06 05:42:55;;;;;;;;;;;17.70;99.90;;;;;;5111966;28;20356;-69
2023/08/06 05:45:21;;;;;;;;;;;17.60;99.90;;;;;;5096854;28;19965;-68
2023/08/06 05:47:49;;;;;;;;;;;17.60;99.90;;;;;;5114881;28;20329;-68
2023/08/06 05:50:15;;;;;;;;;;;17.60;99.90;;;;;;5115618;28;19919;-71
2023/08/06 05:52:42;;;;;;;;;;;17.50;99.90;;;;;;5113610;28;19914;-66
2023/08/06 05:55:09;;;;;;;;;;;17.40;99.90;;;;;;5115238;28;19914;-66
2023/08/06 05:57:35;;;;;;;;;;;17.40;99.90;;;;;;5112919;28;20140;-71
2023/08/06 06:00:03;;;;;;;;;;;17.40;99.90;;;;;;5114761;28;19951;-68
2023/08/06 06:02:31;;;;;;;;;;;17.30;99.90;;;;;;5101362;28;19991;-68
2023/08/06 06:04:57;;;;;;;;;;;17.20;99.90;;;;;;5099301;28;19973;-69
2023/08/06 06:07:24;;;;;;;;;;;17.30;99.90;;;;;;5114442;28;19960;-68
2023/08/06 06:09:50;;;;;;;;;;;17.20;99.90;;;;;;5114177;28;20272;-69
2023/08/06 06:12:17;;;;;;;;;;;17.20;99.90;;;;;;5113478;28;19919;-69
2023/08/06 06:14:44;;;;;;;;;;;17.10;99.90;;;;;;5113688;28;20074;-68
2023/08/06 06:17:11;;;;;;;;;;;17.20;99.90;;;;;;5111882;28;19990;-69
2023/08/06 06:19:37;;;;;;;;;;;17.10;99.90;;;;;;5114538;28;20356;-68
2023/08/06 06:22:04;;;;;;;;;;;17.10;99.90;;;;;;5088454;28;19918;-69
2023/08/06 06:24:31;;;;;;;;;;;17.00;99.90;;;;;;5106531;27;19976;-68
2023/08/06 06:26:57;;;;;;;;;;;17.00;99.90;;;;;;5106738;28;20431;-67
2023/08/06 06:29:24;;;;;;;;;;;16.80;99.90;;;;;;5114459;28;20002;-67
2023/08/06 06:31:50;;;;;;;;;;;16.80;99.90;;;;;;5103944;28;20341;-68
2023/08/06 06:34:17;;;;;;;;;;;16.80;99.90;;;;;;5102695;28;19959;-72
2023/08/06 06:36:43;;;;;;;;;;;16.70;99.90;;;;;;5114688;28;19930;-66
2023/08/06 06:39:10;;;;;;;;;;;16.80;99.90;;;;;;5114540;28;19914;-70
2023/08/06 06:41:37;;;;;;;;;;;16.90;99.90;;;;;;5113975;28;19911;-67
2023/08/06 06:44:03;;;;;;;;;;;16.90;99.90;;;;;;5111745;28;19962;-70
2023/08/06 06:46:30;;;;;;;;;;;16.90;99.90;;;;;;5114541;28;20362;-70
2023/08/06 06:48:57;;;;;;;;;;;16.90;99.90;;;;;;5114613;28;19961;-66
2023/08/06 06:51:23;;;;;;;;;;;16.90;99.90;;;;;;5113163;28;19912;-67
2023/08/06 06:53:50;;;;;;;;;;;17.10;99.90;;;;;;5113392;28;19912;-67
2023/08/06 06:56:16;;;;;;;;;;;17.10;99.90;;;;;;5113515;28;19919;-69
2023/08/06 06:58:43;;;;;;;;;;;17.10;99.90;;;;;;5113054;28;19912;-68
2023/08/06 07:01:11;;;;;;;;;;;17.00;99.90;;;;;;5112651;28;19934;-70
2023/08/06 07:03:38;;;;;;;;;;;16.90;99.90;;;;;;5109574;28;19915;-73
2023/08/06 07:06:05;;;;;;;;;;;16.90;99.90;;;;;;5111874;28;19916;-72
2023/08/06 07:08:32;;;;;;;;;;;16.70;99.90;;;;;;5112836;28;19912;-68
2023/08/06 07:11:03;;;;;;;;;;;16.70;99.90;;;;;;5112524;28;19919;-68
2023/08/06 07:13:29;;;;;;;;;;;16.60;99.90;;;;;;5112950;28;20065;-71
2023/08/06 07:15:56;;;;;;;;;;;16.50;99.90;;;;;;5108210;28;19912;-71
2023/08/06 07:18:23;;;;;;;;;;;16.30;99.90;;;;;;5113627;28;20006;-68
2023/08/06 07:20:51;;;;;;;;;;;16.20;99.90;;;;;;5098227;28;19988;-69
2023/08/06 07:23:18;;;;;;;;;;;16.10;99.90;;;;;;5099171;28;19918;-71
2023/08/06 07:25:46;;;;;;;;;;;15.90;99.90;;;;;;5092598;28;19920;-68
2023/08/06 07:28:13;;;;;;;;;;;15.80;99.90;;;;;;5105107;28;20272;-70
2023/08/06 07:30:40;;;;;;;;;;;15.80;99.90;;;;;;5095200;28;19975;-71
2023/08/06 07:33:07;;;;;;;;;;;15.70;99.90;;;;;;5108824;28;19943;-68
2023/08/06 07:35:34;;;;;;;;;;;15.60;99.90;;;;;;5105697;28;19912;-68
2023/08/06 07:38:00;;;;;;;;;;;15.50;99.90;;;;;;5112882;28;19907;-66
2023/08/06 07:40:27;;;;;;;;;;;15.50;99.90;;;;;;5113111;28;19908;-65
2023/08/06 07:42:54;;;;;;;;;;;15.40;99.90;;;;;;5108171;28;19947;-67
2023/08/06 07:45:21;;;;;;;;;;;15.40;99.90;;;;;;5108061;28;19932;-68
2023/08/06 07:47:47;;;;;;;;;;;15.30;99.90;;;;;;5110906;28;19908;-68
2023/08/06 07:50:14;;;;;;;;;;;15.20;99.90;;;;;;5112249;28;19911;-68
2023/08/06 07:52:41;;;;;;;;;;;15.20;99.90;;;;;;5096652;28;19920;-69
2023/08/06 07:55:08;;;;;;;;;;;15.20;99.90;;;;;;5112969;28;19919;-66
2023/08/06 07:57:34;;;;;;;;;;;15.10;99.90;;;;;;5112747;28;19908;-68
2023/08/06 08:00:01;;;;;;;;;;;15.10;99.90;;;;;;5091539;28;19976;-68
2023/08/06 08:02:30;;;;;;;;;;;15.00;99.90;;;;;;5111556;28;19912;-67
2023/08/06 08:04:56;;;;;;;;;;;14.90;99.90;;;;;;5112828;28;19960;-70
2023/08/06 08:07:23;;;;;;;;;;;14.90;99.90;;;;;;5109978;28;19964;-68
2023/08/06 08:09:49;;;;;;;;;;;14.80;99.90;;;;;;5110874;28;19915;-68
2023/08/06 08:12:16;;;;;;;;;;;14.80;99.90;;;;;;5109489;28;19915;-66
2023/08/06 08:14:45;;;;;;;;;;;14.70;99.90;;;;;;5109461;28;20288;-69
2023/08/06 08:17:12;;;;;;;;;;;14.70;99.90;;;;;;5106424;28;19961;-68
2023/08/06 08:19:38;;;;;;;;;;;14.60;99.90;;;;;;5111394;28;19926;-69
2023/08/06 08:22:05;;;;;;;;;;;14.60;99.90;;;;;;5112661;28;19915;-68
2023/08/06 08:24:32;;;;;;;;;;;14.50;99.90;;;;;;5112456;28;19908;-70
2023/08/06 08:26:58;;;;;;;;;;;14.50;99.90;;;;;;5110248;28;20321;-69
2023/08/06 08:29:25;;;;;;;;;;;14.40;99.90;;;;;;5111781;28;20292;-69
2023/08/06 08:31:52;;;;;;;;;;;14.40;99.90;;;;;;5111926;28;20365;-68
2023/08/06 08:34:18;;;;;;;;;;;14.40;99.90;;;;;;5112610;28;19912;-69
2023/08/06 08:36:49;;;;;;;;;;;14.30;99.90;;;;;;5112453;28;19952;-70
2023/08/06 08:39:16;;;;;;;;;;;14.30;99.90;;;;;;5112246;28;19915;-67
2023/08/06 08:41:43;;;;;;;;;;;14.30;99.90;;;;;;5112140;28;19957;-68
2023/08/06 08:44:10;;;;;;;;;;;14.30;99.90;;;;;;5111882;28;20292;-71
2023/08/06 08:46:38;;;;;;;;;;;14.30;99.90;;;;;;5108259;28;19926;-72
2023/08/06 08:49:09;;;;;;;;;;;14.10;99.90;;;;;;5111675;28;20220;-70
2023/08/06 08:51:36;;;;;;;;;;;14.10;99.90;;;;;;5109850;28;19915;-69
2023/08/06 08:54:03;;;;;;;;;;;14.20;99.90;;;;;;5103621;28;19912;-68
2023/08/06 08:56:30;;;;;;;;;;;14.10;99.90;;;;;;5112205;28;20272;-69
2023/08/06 08:58:57;;;;;;;;;;;14.10;99.90;;;;;;5112503;28;19915;-68
2023/08/06 09:01:24;;;;;;;;;;;14.10;99.90;;;;;;5108704;28;19911;-68
2023/08/06 09:03:51;;;;;;;;;;;14.00;99.90;;;;;;5111775;28;19908;-69
2023/08/06 09:06:20;;;;;;;;;;;13.90;99.90;;;;;;5112070;28;19920;-70
2023/08/06 09:08:54;;;;;;;;;;;13.90;99.90;;;;;;5112064;28;19935;-72
2023/08/06 09:11:21;;;;;;;;;;;13.90;99.90;;;;;;5098519;28;20007;-69
2023/08/06 09:13:48;;;;;;;;;;;13.80;99.90;;;;;;5091283;28;19923;-69
2023/08/06 09:16:14;;;;;;;;;;;13.80;99.90;;;;;;5104510;28;19934;-69
2023/08/06 09:18:41;;;;;;;;;;;13.80;99.90;;;;;;5105595;28;19922;-67
2023/08/06 09:21:13;;;;;;;;;;;13.70;99.90;;;;;;5114748;28;19912;-67
2023/08/06 09:23:40;;;;;;;;;;;13.80;99.90;;;;;;5113545;28;20291;-68
2023/08/06 09:26:06;;;;;;;;;;;13.70;99.90;;;;;;5114845;28;19926;-70
2023/08/06 09:28:39;;;;;;;;;;;13.70;99.90;;;;;;5115121;28;19916;-69
2023/08/06 09:31:06;;;;;;;;;;;13.80;99.90;;;;;;5112465;28;19922;-69
2023/08/06 09:33:33;;;;;;;;;;;13.70;99.90;;;;;;5098362;28;19912;-67
2023/08/06 09:36:08;;;;;;;;;;;13.80;99.90;;;;;;5109481;28;19908;-67
2023/08/06 09:38:39;;;;;;;;;;;13.70;99.90;;;;;;5113661;28;19919;-70
2023/08/06 09:41:06;;;;;;;;;;;13.80;99.90;;;;;;5115257;28;19923;-68
2023/08/06 09:43:43;;;;;;;;;;;13.80;99.90;;;;;;5106940;28;19912;-68
2023/08/06 09:46:16;;;;;;;;;;;13.80;99.90;;;;;;5110546;28;19919;-69
2023/08/06 09:48:45;;;;;;;;;;;13.90;99.90;;;;;;5115256;28;19918;-68
2023/08/06 09:51:13;;;;;;;;;;;13.80;99.90;;;;;;5114974;28;19908;-69
2023/08/06 09:53:40;;;;;;;;;;;13.90;99.90;;;;;;5114936;28;19914;-70
2023/08/06 09:56:07;;;;;;;;;;;13.80;99.90;;;;;;5115497;28;20391;-70
2023/08/06 09:58:34;;;;;;;;;;;13.80;99.90;;;;;;5115629;28;19978;-69
2023/08/06 10:01:01;;;;;;;;;;;13.80;99.90;;;;;;5115894;28;19908;-71
2023/08/06 10:03:28;;;;;;;;;;;13.80;99.90;;;;;;5115419;28;19958;-69
2023/08/06 10:05:56;;;;;;;;;;;13.80;99.90;;;;;;5115062;28;19969;-69
2023/08/06 10:08:23;;;;;;;;;;;13.90;99.90;;;;;;5114675;28;19912;-69
2023/08/06 10:10:50;;;;;;;;;;;13.80;99.90;;;;;;5115308;28;19965;-71
2023/08/06 10:13:17;;;;;;;;;;;13.80;99.90;;;;;;5104850;28;20376;-69
2023/08/06 10:15:43;;;;;;;;;;;13.80;99.90;;;;;;5106470;28;19911;-69
2023/08/06 10:18:11;;;;;;;;;;;13.80;99.90;;;;;;5095225;28;20002;-69
2023/08/06 10:20:38;;;;;;;;;;;13.90;99.90;;;;;;5112626;28;20010;-68
2023/08/06 10:23:05;;;;;;;;;;;13.80;99.90;;;;;;5115284;28;19912;-68
2023/08/06 10:25:33;;;;;;;;;;;13.80;99.90;;;;;;5107213;28;19959;-70
2023/08/06 10:28:00;;;;;;;;;;;13.80;99.90;;;;;;5108186;28;19920;-68
2023/08/06 10:30:27;;;;;;;;;;;13.80;99.90;;;;;;5113742;28;19949;-70
2023/08/06 10:32:56;;;;;;;;;;;13.80;99.90;;;;;;5104365;28;19909;-68
2023/08/06 10:35:38;;;;;;;;;;;13.80;99.90;;;;;;5077307;28;19924;-69
2023/08/06 10:38:33;;;;;;;;;;;13.80;99.90;;;;;;5094668;28;20368;-68
2023/08/06 10:40:59;;;;;;;;;;;13.80;99.90;;;;;;5093575;28;19931;-70
2023/08/06 10:43:27;;;;;;;;;;;13.80;99.90;;;;;;5103537;28;19920;-69
2023/08/06 10:45:54;;;;;;;;;;;13.80;99.90;;;;;;5115221;28;20292;-70
2023/08/06 10:48:36;;;;;;;;;;;13.80;99.90;;;;;;5114308;28;19954;-68
2023/08/06 10:51:04;;;;;;;;;;;13.80;99.90;;;;;;5098647;28;19912;-69
2023/08/06 10:53:31;;;;;;;;;;;13.70;99.90;;;;;;5094728;28;19908;-69
2023/08/06 10:55:58;;;;;;;;;;;13.70;99.90;;;;;;5094514;28;19909;-69
2023/08/06 10:58:24;;;;;;;;;;;13.60;99.90;;;;;;5103726;28;20387;-69
2023/08/06 11:00:51;;;;;;;;;;;13.60;99.90;;;;;;5111025;27;19912;-69
2023/08/06 11:03:18;;;;;;;;;;;13.60;99.90;;;;;;5103095;27;20284;-69
2023/08/06 11:05:50;;;;;;;;;;;13.50;99.90;;;;;;5103147;28;19948;-69
2023/08/06 11:08:24;;;;;;;;;;;13.50;99.90;;;;;;5094267;28;19936;-70
2023/08/06 11:10:51;;;;;;;;;;;13.50;99.90;;;;;;5094443;28;19908;-69
2023/08/06 11:13:20;;;;;;;;;;;13.40;99.90;;;;;;5076102;28;19908;-68
2023/08/06 11:15:47;;;;;;;;;;;13.40;99.90;;;;;;5094001;28;19908;-68
2023/08/06 11:18:14;;;;;;;;;;;13.50;99.90;;;;;;5094153;28;19958;-68
2023/08/06 11:20:41;;;;;;;;;;;13.40;99.90;;;;;;5105627;28;19912;-68
2023/08/06 11:23:10;;;;;;;;;;;13.40;99.90;;;;;;5114009;28;20357;-70
2023/08/06 11:25:37;;;;;;;;;;;13.30;99.90;;;;;;5111245;28;20372;-70
2023/08/06 11:28:04;;;;;;;;;;;13.30;99.90;;;;;;5093483;28;19965;-69
2023/08/06 11:30:31;;;;;;;;;;;13.20;99.90;;;;;;5093582;28;19999;-70
2023/08/06 11:32:57;;;;;;;;;;;13.10;99.90;;;;;;5099109;28;20312;-69
2023/08/06 11:35:24;;;;;;;;;;;13.10;99.90;;;;;;5095504;28;20006;-70
2023/08/06 11:37:51;;;;;;;;;;;13.10;99.90;;;;;;5114050;28;20405;-70
2023/08/06 11:40:17;;;;;;;;;;;13.10;99.90;;;;;;5113658;28;19968;-69
2023/08/06 11:42:46;;;;;;;;;;;13.00;99.90;;;;;;5095163;28;19939;-69
2023/08/06 11:45:13;;;;;;;;;;;12.90;99.90;;;;;;5113574;28;19955;-70
2023/08/06 11:47:42;;;;;;;;;;;12.90;99.90;;;;;;5112238;28;19912;-69
2023/08/06 11:50:09;;;;;;;;;;;12.90;99.90;;;;;;5113060;28;20435;-69
2023/08/06 11:52:40;;;;;;;;;;;12.80;99.90;;;;;;5114132;28;20379;-68
2023/08/06 11:55:10;;;;;;;;;;;12.70;99.90;;;;;;5097882;28;19978;-69
2023/08/06 11:57:40;;;;;;;;;;;12.70;99.90;;;;;;5093608;28;19909;-68
2023/08/06 12:00:10;;;;;;;;;;;12.70;99.90;;;;;;5093037;28;19908;-67
2023/08/06 12:02:39;;;;;;;;;;;12.70;99.90;;;;;;5102683;27;20006;-69
2023/08/06 12:05:26;;;;;;;;;;;12.50;99.90;;;;;;5110407;28;19920;-67
2023/08/06 12:07:54;;;;;;;;;;;12.50;99.90;;;;;;5101515;28;19969;-68
2023/08/06 12:10:21;;;;;;;;;;;12.50;99.90;;;;;;5093153;28;20360;-68
2023/08/06 12:12:48;;;;;;;;;;;12.40;99.90;;;;;;5093038;28;19965;-67
2023/08/06 12:15:15;;;;;;;;;;;12.40;99.90;;;;;;5093149;28;19918;-68
2023/08/06 12:17:42;;;;;;;;;;;12.30;99.90;;;;;;5113413;28;19960;-70
2023/08/06 12:20:09;;;;;;;;;;;12.30;99.90;;;;;;5113703;28;20265;-68
2023/08/06 12:22:38;;;;;;;;;;;12.20;99.90;;;;;;5101326;28;20322;-69
2023/08/06 12:25:11;;;;;;;;;;;12.30;99.90;;;;;;5092934;28;20368;-68
2023/08/06 12:27:38;;;;;;;;;;;12.30;99.90;;;;;;5102538;28;19970;-68
2023/08/06 12:30:05;;;;;;;;;;;12.20;99.90;;;;;;5113310;28;19950;-68
2023/08/06 12:32:32;;;;;;;;;;;12.20;99.90;;;;;;5112899;28;19998;-68
2023/08/06 12:35:00;;;;;;;;;;;12.20;99.90;;;;;;5112787;28;19908;-69
2023/08/06 12:37:27;;;;;;;;;;;12.10;99.90;;;;;;5110863;28;19920;-68
2023/08/06 12:39:54;;;;;;;;;;;12.10;99.90;;;;;;5092637;28;19908;-67
2023/08/06 12:42:20;;;;;;;;;;;12.10;99.90;;;;;;5092867;28;19912;-69
2023/08/06 12:44:48;;;;;;;;;;;12.20;99.90;;;;;;5092682;28;19920;-69
2023/08/06 12:47:16;;;;;;;;;;;12.10;99.90;;;;;;5109072;28;20277;-69
2023/08/06 12:49:42;;;;;;;;;;;12.10;99.90;;;;;;5107310;28;20043;-69
2023/08/06 12:52:09;;;;;;;;;;;12.00;99.90;;;;;;5091916;28;19961;-68
2023/08/06 12:54:39;;;;;;;;;;;12.00;99.90;;;;;;5092276;28;19908;-69
2023/08/06 12:57:06;;;;;;;;;;;12.00;99.90;;;;;;5092174;28;19916;-68
2023/08/06 12:59:33;;;;;;;;;;;11.90;99.90;;;;;;5109038;28;19912;-69
2023/08/06 13:02:00;;;;;;;;;;;11.90;99.90;;;;;;5112259;28;20364;-69
2023/08/06 13:04:27;;;;;;;;;;;11.90;99.90;;;;;;5112544;28;19907;-69
2023/08/06 13:06:54;;;;;;;;;;;11.90;99.90;;;;;;5112745;28;19923;-68
2023/08/06 13:09:20;;;;;;;;;;;11.90;99.90;;;;;;5112707;28;20002;-69
2023/08/06 13:11:50;;;;;;;;;;;11.80;99.90;;;;;;5112870;28;20000;-68
2023/08/06 13:14:16;;;;;;;;;;;11.80;99.90;;;;;;5112238;28;19934;-69
2023/08/06 13:16:44;;;;;;;;;;;11.90;99.90;;;;;;5104877;28;19923;-71
2023/08/06 13:19:13;;;;;;;;;;;11.70;99.90;;;;;;5111824;28;19912;-70
2023/08/06 13:21:42;;;;;;;;;;;11.80;99.90;;;;;;5112458;28;19946;-68
2023/08/06 13:24:09;;;;;;;;;;;11.70;99.90;;;;;;5112403;28;19908;-69
2023/08/06 13:26:36;;;;;;;;;;;11.70;99.90;;;;;;5112301;28;19935;-68
2023/08/06 13:29:02;;;;;;;;;;;11.70;99.90;;;;;;5095948;28;20021;-69
2023/08/06 13:31:29;;;;;;;;;;;11.60;99.90;;;;;;5092349;28;19916;-69
2023/08/06 13:33:57;;;;;;;;;;;11.70;99.90;;;;;;5106077;28;19908;-69
2023/08/06 13:36:24;;;;;;;;;;;11.60;99.90;;;;;;5104339;28;20369;-68
2023/08/06 13:38:51;;;;;;;;;;;11.70;99.90;;;;;;5092250;28;20277;-69
2023/08/06 13:41:18;;;;;;;;;;;11.60;99.90;;;;;;5093166;28;19920;-68
2023/08/06 13:43:44;;;;;;;;;;;11.60;99.90;;;;;;5091272;28;20362;-67
2023/08/06 13:46:19;;;;;;;;;;;11.60;99.90;;;;;;5098723;28;20295;-70
2023/08/06 13:48:46;;;;;;;;;;;11.50;99.90;;;;;;5112313;28;19908;-69
2023/08/06 13:51:13;;;;;;;;;;;11.50;99.90;;;;;;5112375;28;19907;-69
2023/08/06 13:53:41;;;;;;;;;;;11.50;99.90;;;;;;5111473;28;19912;-68
2023/08/06 13:56:11;;;;;;;;;;;11.40;99.90;;;;;;5112460;28;19995;-69
2023/08/06 13:58:38;;;;;;;;;;;11.30;99.90;;;;;;5111891;28;20003;-70
2023/08/06 14:01:05;;;;;;;;;;;11.30;99.90;;;;;;5112154;28;20271;-69
2023/08/06 14:03:32;;;;;;;;;;;11.20;99.90;;;;;;5111861;28;19915;-70
2023/08/06 14:05:59;;;;;;;;;;;11.20;99.90;;;;;;5115708;28;20486;-68
2023/08/06 14:08:25;;;;;;;;;;;11.20;99.90;;;;;;5115687;28;19912;-69
2023/08/06 14:10:52;;;;;;;;;;;11.20;99.90;;;;;;5099895;28;19922;-69
2023/08/06 14:13:19;;;;;;;;;;;11.20;99.90;;;;;;5115897;28;20325;-68
2023/08/06 14:15:48;;;;;;;;;;;11.10;99.90;;;;;;5111883;28;19912;-69
2023/08/06 14:18:15;;;;;;;;;;;11.20;99.90;;;;;;5076937;28;20380;-69